Terminal Aerodrome Forecast
Issued by NWS

Home | Current Version | Previous Version | Text Only | Print | Product List | Glossary On
Versions: 1 2 3 4 5 6 7 8 9 10 11 12 13 14 15 16 17 18 19 20 21 22 23
000
FTUS43 KPAH 222037 AAA
TAFCGI
TAF AMD
KCGI 222037Z 2221/2318 08010G20KT 6SM -SHRA SCT011 BKN020
      TEMPO 2221/2223 3SM SHRA BR BKN011
     FM222300 08012G22KT 4SM -SHRA BR SCT007 OVC017
     FM230600 06012G22KT 4SM -SHRA BR OVC007
     FM231500 05010KT P6SM OVC010 PROB30 2315/2318 6SM -SHRA BR
      OVC007=

USA.gov is the U.S. government's official web portal to all federal, state and local government web resources and services.